sensor_id;sensor_type;location;lat;lon;timestamp;temperature;humidity
51811;DHT22;52468;40.116;18.296;2023-06-10T00:01:06;22.70;74.80
51811;DHT22;52468;40.116;18.296;2023-06-10T00:03:34;22.70;74.70
51811;DHT22;52468;40.116;18.296;2023-06-10T00:06:02;22.80;74.60
51811;DHT22;52468;40.116;18.296;2023-06-10T00:08:30;22.70;74.70
51811;DHT22;52468;40.116;18.296;2023-06-10T00:10:58;22.70;74.80
51811;DHT22;52468;40.116;18.296;2023-06-10T00:13:26;22.70;74.80
51811;DHT22;52468;40.116;18.296;2023-06-10T00:15:54;22.80;74.60
51811;DHT22;52468;40.116;18.296;2023-06-10T00:18:22;22.90;74.50
51811;DHT22;52468;40.116;18.296;2023-06-10T00:20:50;22.80;74.40
51811;DHT22;52468;40.116;18.296;2023-06-10T00:23:21;22.90;74.50
51811;DHT22;52468;40.116;18.296;2023-06-10T00:25:49;22.80;74.60
51811;DHT22;52468;40.116;18.296;2023-06-10T00:28:16;22.80;74.60
51811;DHT22;52468;40.116;18.296;2023-06-10T00:30:44;22.70;74.60
51811;DHT22;52468;40.116;18.296;2023-06-10T00:33:12;22.70;74.80
51811;DHT22;52468;40.116;18.296;2023-06-10T00:35:40;22.80;74.70
51811;DHT22;52468;40.116;18.296;2023-06-10T00:38:08;22.80;74.60
51811;DHT22;52468;40.116;18.296;2023-06-10T00:40:39;22.80;74.40
51811;DHT22;52468;40.116;18.296;2023-06-10T00:43:08;22.80;74.30
51811;DHT22;52468;40.116;18.296;2023-06-10T00:45:36;22.80;74.50
51811;DHT22;52468;40.116;18.296;2023-06-10T00:48:04;22.80;74.60
51811;DHT22;52468;40.116;18.296;2023-06-10T00:50:32;22.90;74.40
51811;DHT22;52468;40.116;18.296;2023-06-10T00:53:02;22.90;74.20
51811;DHT22;52468;40.116;18.296;2023-06-10T00:55:31;22.90;74.20
51811;DHT22;52468;40.116;18.296;2023-06-10T00:58:00;22.80;74.20
51811;DHT22;52468;40.116;18.296;2023-06-10T01:00:28;22.80;74.20
51811;DHT22;52468;40.116;18.296;2023-06-10T01:02:56;22.70;74.30
51811;DHT22;52468;40.116;18.296;2023-06-10T01:05:26;22.70;74.40
51811;DHT22;52468;40.116;18.296;2023-06-10T01:10:42;22.60;74.40
51811;DHT22;52468;40.116;18.296;2023-06-10T01:13:11;22.50;74.70
51811;DHT22;52468;40.116;18.296;2023-06-10T01:15:41;22.50;75.00
51811;DHT22;52468;40.116;18.296;2023-06-10T01:18:10;22.60;75.10
51811;DHT22;52468;40.116;18.296;2023-06-10T01:20:43;22.60;75.00
51811;DHT22;52468;40.116;18.296;2023-06-10T01:23:11;22.60;74.80
51811;DHT22;52468;40.116;18.296;2023-06-10T01:25:48;22.60;74.70
51811;DHT22;52468;40.116;18.296;2023-06-10T01:28:35;22.60;74.60
51811;DHT22;52468;40.116;18.296;2023-06-10T01:31:13;22.60;74.50
51811;DHT22;52468;40.116;18.296;2023-06-10T01:33:47;22.60;74.50
51811;DHT22;52468;40.116;18.296;2023-06-10T01:36:17;22.50;74.50
51811;DHT22;52468;40.116;18.296;2023-06-10T01:38:47;22.60;74.40
51811;DHT22;52468;40.116;18.296;2023-06-10T01:41:19;22.50;74.40
51811;DHT22;52468;40.116;18.296;2023-06-10T01:43:49;22.40;74.70
51811;DHT22;52468;40.116;18.296;2023-06-10T01:46:17;22.30;75.00
51811;DHT22;52468;40.116;18.296;2023-06-10T01:48:48;22.20;75.20
51811;DHT22;52468;40.116;18.296;2023-06-10T01:51:16;22.20;75.30
51811;DHT22;52468;40.116;18.296;2023-06-10T01:53:44;22.20;75.30
51811;DHT22;52468;40.116;18.296;2023-06-10T01:56:12;22.20;75.40
51811;DHT22;52468;40.116;18.296;2023-06-10T01:58:46;22.20;75.20
51811;DHT22;52468;40.116;18.296;2023-06-10T02:01:14;22.20;75.10
51811;DHT22;52468;40.116;18.296;2023-06-10T02:03:42;22.10;74.80
51811;DHT22;52468;40.116;18.296;2023-06-10T02:06:10;22.10;74.90
51811;DHT22;52468;40.116;18.296;2023-06-10T02:08:38;22.20;74.80
51811;DHT22;52468;40.116;18.296;2023-06-10T02:11:06;22.20;74.50
51811;DHT22;52468;40.116;18.296;2023-06-10T02:13:34;22.20;74.40
51811;DHT22;52468;40.116;18.296;2023-06-10T02:16:02;22.20;74.30
51811;DHT22;52468;40.116;18.296;2023-06-10T02:18:30;22.20;74.10
51811;DHT22;52468;40.116;18.296;2023-06-10T02:20:58;22.20;74.20
51811;DHT22;52468;40.116;18.296;2023-06-10T02:23:26;22.20;73.90
51811;DHT22;52468;40.116;18.296;2023-06-10T02:25:54;22.20;74.00
51811;DHT22;52468;40.116;18.296;2023-06-10T02:28:22;22.30;73.90
51811;DHT22;52468;40.116;18.296;2023-06-10T02:30:50;22.30;73.60
51811;DHT22;52468;40.116;18.296;2023-06-10T02:33:20;22.30;73.50
51811;DHT22;52468;40.116;18.296;2023-06-10T02:35:48;22.30;73.50
51811;DHT22;52468;40.116;18.296;2023-06-10T02:38:16;22.20;73.50
51811;DHT22;52468;40.116;18.296;2023-06-10T02:40:44;22.20;73.60
51811;DHT22;52468;40.116;18.296;2023-06-10T02:43:13;22.20;73.60
51811;DHT22;52468;40.116;18.296;2023-06-10T02:45:41;22.20;73.60
51811;DHT22;52468;40.116;18.296;2023-06-10T02:48:10;22.20;73.50
51811;DHT22;52468;40.116;18.296;2023-06-10T02:50:38;22.10;73.50
51811;DHT22;52468;40.116;18.296;2023-06-10T02:53:22;22.10;73.80
51811;DHT22;52468;40.116;18.296;2023-06-10T02:55:55;22.10;73.80
51811;DHT22;52468;40.116;18.296;2023-06-10T02:58:23;22.10;73.80
51811;DHT22;52468;40.116;18.296;2023-06-10T03:00:52;22.10;73.90
51811;DHT22;52468;40.116;18.296;2023-06-10T03:03:20;22.00;73.90
51811;DHT22;52468;40.116;18.296;2023-06-10T03:06:05;22.00;74.20
51811;DHT22;52468;40.116;18.296;2023-06-10T03:08:34;22.00;74.20
51811;DHT22;52468;40.116;18.296;2023-06-10T03:11:07;22.00;74.40
51811;DHT22;52468;40.116;18.296;2023-06-10T03:13:36;22.00;74.40
51811;DHT22;52468;40.116;18.296;2023-06-10T03:16:04;22.00;74.50
51811;DHT22;52468;40.116;18.296;2023-06-10T03:18:35;22.00;74.70
51811;DHT22;52468;40.116;18.296;2023-06-10T03:21:03;22.00;74.90
51811;DHT22;52468;40.116;18.296;2023-06-10T03:23:31;22.10;74.50
51811;DHT22;52468;40.116;18.296;2023-06-10T03:26:00;22.10;74.50
51811;DHT22;52468;40.116;18.296;2023-06-10T03:28:31;22.10;74.50
51811;DHT22;52468;40.116;18.296;2023-06-10T03:30:59;22.10;74.50
51811;DHT22;52468;40.116;18.296;2023-06-10T03:33:28;22.10;74.50
51811;DHT22;52468;40.116;18.296;2023-06-10T03:35:56;22.10;74.50
51811;DHT22;52468;40.116;18.296;2023-06-10T03:38:24;22.10;74.50
51811;DHT22;52468;40.116;18.296;2023-06-10T03:40:53;22.20;74.70
51811;DHT22;52468;40.116;18.296;2023-06-10T03:43:21;22.20;74.80
51811;DHT22;52468;40.116;18.296;2023-06-10T03:45:51;22.30;74.70
51811;DHT22;52468;40.116;18.296;2023-06-10T03:48:19;22.40;74.80
51811;DHT22;52468;40.116;18.296;2023-06-10T03:50:51;22.60;74.50
51811;DHT22;52468;40.116;18.296;2023-06-10T03:53:21;22.80;74.50
51811;DHT22;52468;40.116;18.296;2023-06-10T03:55:49;23.00;74.20
51811;DHT22;52468;40.116;18.296;2023-06-10T03:58:20;23.20;73.70
51811;DHT22;52468;40.116;18.296;2023-06-10T04:00:48;23.50;72.80
51811;DHT22;52468;40.116;18.296;2023-06-10T04:03:17;23.60;72.00
51811;DHT22;52468;40.116;18.296;2023-06-10T04:05:47;23.70;71.70
51811;DHT22;52468;40.116;18.296;2023-06-10T04:08:15;23.80;71.30
51811;DHT22;52468;40.116;18.296;2023-06-10T04:10:43;23.90;70.80
51811;DHT22;52468;40.116;18.296;2023-06-10T04:13:11;24.00;70.30
51811;DHT22;52468;40.116;18.296;2023-06-10T04:15:48;24.10;69.90
51811;DHT22;52468;40.116;18.296;2023-06-10T04:18:17;24.10;69.80
51811;DHT22;52468;40.116;18.296;2023-06-10T04:20:46;24.20;69.40
51811;DHT22;52468;40.116;18.296;2023-06-10T04:23:14;24.20;69.20
51811;DHT22;52468;40.116;18.296;2023-06-10T04:25:44;24.10;69.10
51811;DHT22;52468;40.116;18.296;2023-06-10T04:28:13;24.20;69.00
51811;DHT22;52468;40.116;18.296;2023-06-10T04:30:42;24.20;69.10
51811;DHT22;52468;40.116;18.296;2023-06-10T04:33:11;24.50;68.20
51811;DHT22;52468;40.116;18.296;2023-06-10T04:35:41;24.50;67.90
51811;DHT22;52468;40.116;18.296;2023-06-10T04:38:11;24.50;67.60
51811;DHT22;52468;40.116;18.296;2023-06-10T04:40:40;24.60;67.50
51811;DHT22;52468;40.116;18.296;2023-06-10T04:43:10;24.70;67.20
51811;DHT22;52468;40.116;18.296;2023-06-10T04:45:38;24.80;67.10
51811;DHT22;52468;40.116;18.296;2023-06-10T04:48:07;24.90;67.00
51811;DHT22;52468;40.116;18.296;2023-06-10T04:50:35;24.90;66.80
51811;DHT22;52468;40.116;18.296;2023-06-10T04:53:04;25.10;66.40
51811;DHT22;52468;40.116;18.296;2023-06-10T04:55:32;25.10;66.10
51811;DHT22;52468;40.116;18.296;2023-06-10T04:58:01;25.20;65.80
51811;DHT22;52468;40.116;18.296;2023-06-10T05:00:29;25.30;65.70
51811;DHT22;52468;40.116;18.296;2023-06-10T05:02:57;25.40;65.60
51811;DHT22;52468;40.116;18.296;2023-06-10T05:05:25;25.60;65.30
51811;DHT22;52468;40.116;18.296;2023-06-10T05:07:53;25.80;64.90
51811;DHT22;52468;40.116;18.296;2023-06-10T05:10:20;26.10;64.10
51811;DHT22;52468;40.116;18.296;2023-06-10T05:12:48;26.40;63.50
51811;DHT22;52468;40.116;18.296;2023-06-10T05:15:16;26.70;62.30
51811;DHT22;52468;40.116;18.296;2023-06-10T05:17:44;27.00;61.40
51811;DHT22;52468;40.116;18.296;2023-06-10T05:20:12;27.30;60.30
51811;DHT22;52468;40.116;18.296;2023-06-10T05:22:41;27.70;58.70
51811;DHT22;52468;40.116;18.296;2023-06-10T05:25:09;28.00;57.90
51811;DHT22;52468;40.116;18.296;2023-06-10T05:27:37;28.20;57.00
51811;DHT22;52468;40.116;18.296;2023-06-10T05:30:06;28.40;55.20
51811;DHT22;52468;40.116;18.296;2023-06-10T05:32:35;28.40;54.80
51811;DHT22;52468;40.116;18.296;2023-06-10T05:35:03;28.50;54.80
51811;DHT22;52468;40.116;18.296;2023-06-10T05:37:33;28.80;54.30
51811;DHT22;52468;40.116;18.296;2023-06-10T05:40:02;29.00;53.80
51811;DHT22;52468;40.116;18.296;2023-06-10T05:42:31;29.10;53.10
51811;DHT22;52468;40.116;18.296;2023-06-10T05:44:59;29.30;52.30
51811;DHT22;52468;40.116;18.296;2023-06-10T05:47:27;29.40;52.10
51811;DHT22;52468;40.116;18.296;2023-06-10T05:49:55;29.40;51.00
51811;DHT22;52468;40.116;18.296;2023-06-10T05:52:23;29.70;50.70
51811;DHT22;52468;40.116;18.296;2023-06-10T05:54:50;30.10;49.60
51811;DHT22;52468;40.116;18.296;2023-06-10T05:57:18;30.30;49.20
51811;DHT22;52468;40.116;18.296;2023-06-10T05:59:46;30.40;49.00
51811;DHT22;52468;40.116;18.296;2023-06-10T06:02:14;30.40;48.60
51811;DHT22;52468;40.116;18.296;2023-06-10T06:04:42;30.50;48.20
51811;DHT22;52468;40.116;18.296;2023-06-10T06:07:10;30.60;47.40
51811;DHT22;52468;40.116;18.296;2023-06-10T06:09:38;30.50;47.20
51811;DHT22;52468;40.116;18.296;2023-06-10T06:12:06;30.60;46.70
51811;DHT22;52468;40.116;18.296;2023-06-10T06:14:37;30.80;46.10
51811;DHT22;52468;40.116;18.296;2023-06-10T06:17:07;30.80;45.90
51811;DHT22;52468;40.116;18.296;2023-06-10T06:19:35;30.90;45.80
51811;DHT22;52468;40.116;18.296;2023-06-10T06:22:03;30.90;45.60
51811;DHT22;52468;40.116;18.296;2023-06-10T06:24:31;31.00;45.30
51811;DHT22;52468;40.116;18.296;2023-06-10T06:26:58;30.90;45.10
51811;DHT22;52468;40.116;18.296;2023-06-10T06:29:26;30.60;45.30
51811;DHT22;52468;40.116;18.296;2023-06-10T06:31:54;30.50;45.30
51811;DHT22;52468;40.116;18.296;2023-06-10T06:34:22;30.60;45.30
51811;DHT22;52468;40.116;18.296;2023-06-10T06:36:50;30.90;44.60
51811;DHT22;52468;40.116;18.296;2023-06-10T06:39:18;31.10;43.80
51811;DHT22;52468;40.116;18.296;2023-06-10T06:44:15;31.50;43.30
51811;DHT22;52468;40.116;18.296;2023-06-10T06:46:44;31.70;41.90
51811;DHT22;52468;40.116;18.296;2023-06-10T06:49:12;32.00;40.00
51811;DHT22;52468;40.116;18.296;2023-06-10T06:51:39;32.20;39.60
51811;DHT22;52468;40.116;18.296;2023-06-10T06:54:07;32.50;39.40
51811;DHT22;52468;40.116;18.296;2023-06-10T06:56:35;32.80;39.00
51811;DHT22;52468;40.116;18.296;2023-06-10T06:59:03;33.10;38.60
51811;DHT22;52468;40.116;18.296;2023-06-10T07:01:33;33.30;37.90
51811;DHT22;52468;40.116;18.296;2023-06-10T07:04:02;33.50;37.80
51811;DHT22;52468;40.116;18.296;2023-06-10T07:06:30;33.50;37.10
51811;DHT22;52468;40.116;18.296;2023-06-10T07:08:57;33.00;37.20
51811;DHT22;52468;40.116;18.296;2023-06-10T07:11:25;32.70;37.00
51811;DHT22;52468;40.116;18.296;2023-06-10T07:13:54;32.50;37.00
51811;DHT22;52468;40.116;18.296;2023-06-10T07:16:22;32.30;37.20
51811;DHT22;52468;40.116;18.296;2023-06-10T07:18:50;32.20;37.40
51811;DHT22;52468;40.116;18.296;2023-06-10T07:21:18;32.00;37.90
51811;DHT22;52468;40.116;18.296;2023-06-10T07:23:46;32.00;37.70
51811;DHT22;52468;40.116;18.296;2023-06-10T07:26:13;32.20;37.10
51811;DHT22;52468;40.116;18.296;2023-06-10T07:28:42;32.30;36.90
51811;DHT22;52468;40.116;18.296;2023-06-10T07:31:10;32.40;36.50
51811;DHT22;52468;40.116;18.296;2023-06-10T07:33:39;32.40;36.70
51811;DHT22;52468;40.116;18.296;2023-06-10T07:36:07;32.50;36.10
51811;DHT22;52468;40.116;18.296;2023-06-10T07:38:35;32.60;36.20
51811;DHT22;52468;40.116;18.296;2023-06-10T07:41:03;32.70;36.60
51811;DHT22;52468;40.116;18.296;2023-06-10T07:43:31;32.60;36.40
51811;DHT22;52468;40.116;18.296;2023-06-10T07:45:59;32.70;36.80
51811;DHT22;52468;40.116;18.296;2023-06-10T07:48:27;32.40;37.10
51811;DHT22;52468;40.116;18.296;2023-06-10T07:50:55;32.20;37.80
51811;DHT22;52468;40.116;18.296;2023-06-10T07:53:23;32.20;38.10
51811;DHT22;52468;40.116;18.296;2023-06-10T07:55:50;32.40;37.90
51811;DHT22;52468;40.116;18.296;2023-06-10T07:58:18;32.70;36.90
51811;DHT22;52468;40.116;18.296;2023-06-10T08:00:46;32.60;37.10
51811;DHT22;52468;40.116;18.296;2023-06-10T08:03:14;32.50;37.40
51811;DHT22;52468;40.116;18.296;2023-06-10T08:05:42;32.50;37.60
51811;DHT22;52468;40.116;18.296;2023-06-10T08:08:10;32.70;37.60
51811;DHT22;52468;40.116;18.296;2023-06-10T08:10:38;32.90;37.00
51811;DHT22;52468;40.116;18.296;2023-06-10T08:13:07;33.10;36.40
51811;DHT22;52468;40.116;18.296;2023-06-10T08:15:35;33.00;36.40
51811;DHT22;52468;40.116;18.296;2023-06-10T08:18:03;33.10;36.00
51811;DHT22;52468;40.116;18.296;2023-06-10T08:20:31;32.70;36.20
51811;DHT22;52468;40.116;18.296;2023-06-10T08:22:59;32.50;36.70
51811;DHT22;52468;40.116;18.296;2023-06-10T08:25:27;32.40;37.10
51811;DHT22;52468;40.116;18.296;2023-06-10T08:27:55;32.80;36.70
51811;DHT22;52468;40.116;18.296;2023-06-10T08:30:25;32.90;36.40
51811;DHT22;52468;40.116;18.296;2023-06-10T08:32:52;33.10;36.10
51811;DHT22;52468;40.116;18.296;2023-06-10T08:35:20;33.50;35.50
51811;DHT22;52468;40.116;18.296;2023-06-10T08:37:48;33.70;35.10
51811;DHT22;52468;40.116;18.296;2023-06-10T08:40:17;34.00;34.50
51811;DHT22;52468;40.116;18.296;2023-06-10T08:45:32;33.80;35.00
51811;DHT22;52468;40.116;18.296;2023-06-10T08:48:04;33.70;34.70
51811;DHT22;52468;40.116;18.296;2023-06-10T08:50:35;34.00;34.60
51811;DHT22;52468;40.116;18.296;2023-06-10T08:53:05;34.10;34.60
51811;DHT22;52468;40.116;18.296;2023-06-10T08:55:37;34.60;33.90
51811;DHT22;52468;40.116;18.296;2023-06-10T08:58:05;34.50;33.90
51811;DHT22;52468;40.116;18.296;2023-06-10T09:00:34;34.70;33.80
51811;DHT22;52468;40.116;18.296;2023-06-10T09:03:04;34.80;33.70
51811;DHT22;52468;40.116;18.296;2023-06-10T09:05:33;35.20;33.30
51811;DHT22;52468;40.116;18.296;2023-06-10T09:08:02;35.30;32.70
51811;DHT22;52468;40.116;18.296;2023-06-10T09:10:30;35.80;32.70
51811;DHT22;52468;40.116;18.296;2023-06-10T09:12:58;36.50;31.80
51811;DHT22;52468;40.116;18.296;2023-06-10T09:15:25;36.70;31.80
51811;DHT22;52468;40.116;18.296;2023-06-10T09:17:54;36.90;31.90
51811;DHT22;52468;40.116;18.296;2023-06-10T09:20:23;36.90;31.70
51811;DHT22;52468;40.116;18.296;2023-06-10T09:22:51;36.70;32.10
51811;DHT22;52468;40.116;18.296;2023-06-10T09:25:19;36.50;33.20
51811;DHT22;52468;40.116;18.296;2023-06-10T09:27:49;35.90;34.90
51811;DHT22;52468;40.116;18.296;2023-06-10T09:30:32;35.30;36.00
51811;DHT22;52468;40.116;18.296;2023-06-10T09:33:02;34.70;36.80
51811;DHT22;52468;40.116;18.296;2023-06-10T09:35:31;34.10;37.60
51811;DHT22;52468;40.116;18.296;2023-06-10T09:37:59;34.00;37.90
51811;DHT22;52468;40.116;18.296;2023-06-10T09:40:28;34.10;37.80
51811;DHT22;52468;40.116;18.296;2023-06-10T09:42:58;34.40;37.80
51811;DHT22;52468;40.116;18.296;2023-06-10T09:45:30;34.30;37.50
51811;DHT22;52468;40.116;18.296;2023-06-10T09:48:01;34.40;37.20
51811;DHT22;52468;40.116;18.296;2023-06-10T09:50:33;34.50;37.00
51811;DHT22;52468;40.116;18.296;2023-06-10T09:53:02;34.70;36.80
51811;DHT22;52468;40.116;18.296;2023-06-10T09:55:33;34.80;36.40
51811;DHT22;52468;40.116;18.296;2023-06-10T09:58:01;35.00;36.10
51811;DHT22;52468;40.116;18.296;2023-06-10T10:00:32;35.00;35.70
51811;DHT22;52468;40.116;18.296;2023-06-10T10:03:01;35.00;36.00
51811;DHT22;52468;40.116;18.296;2023-06-10T10:05:29;35.70;35.40
51811;DHT22;52468;40.116;18.296;2023-06-10T10:07:57;36.30;35.00
51811;DHT22;52468;40.116;18.296;2023-06-10T10:10:25;36.60;34.80
51811;DHT22;52468;40.116;18.296;2023-06-10T10:12:56;36.10;35.70
51811;DHT22;52468;40.116;18.296;2023-06-10T10:15:28;36.10;35.90
51811;DHT22;52468;40.116;18.296;2023-06-10T10:18:17;36.00;36.10
51811;DHT22;52468;40.116;18.296;2023-06-10T10:20:50;36.50;35.40
51811;DHT22;52468;40.116;18.296;2023-06-10T10:23:24;36.50;35.20
51811;DHT22;52468;40.116;18.296;2023-06-10T10:25:54;36.30;35.40
51811;DHT22;52468;40.116;18.296;2023-06-10T10:28:24;36.30;35.40
51811;DHT22;52468;40.116;18.296;2023-06-10T10:30:59;35.50;36.40
51811;DHT22;52468;40.116;18.296;2023-06-10T10:36:04;34.00;41.10
51811;DHT22;52468;40.116;18.296;2023-06-10T10:38:32;33.50;44.10
51811;DHT22;52468;40.116;18.296;2023-06-10T10:41:00;33.00;46.00
51811;DHT22;52468;40.116;18.296;2023-06-10T10:43:29;32.60;47.70
51811;DHT22;52468;40.116;18.296;2023-06-10T10:46:02;31.80;48.70
51811;DHT22;52468;40.116;18.296;2023-06-10T10:48:37;31.30;51.90
51811;DHT22;52468;40.116;18.296;2023-06-10T10:51:05;30.90;53.60
51811;DHT22;52468;40.116;18.296;2023-06-10T10:53:33;30.50;55.30
51811;DHT22;52468;40.116;18.296;2023-06-10T10:56:08;30.40;55.30
51811;DHT22;52468;40.116;18.296;2023-06-10T10:58:41;30.20;56.00
51811;DHT22;52468;40.116;18.296;2023-06-10T11:01:12;30.00;57.10
51811;DHT22;52468;40.116;18.296;2023-06-10T11:03:46;29.70;57.90
51811;DHT22;52468;40.116;18.296;2023-06-10T11:06:16;29.50;58.50
51811;DHT22;52468;40.116;18.296;2023-06-10T11:08:46;29.20;59.10
51811;DHT22;52468;40.116;18.296;2023-06-10T11:11:26;29.00;59.80
51811;DHT22;52468;40.116;18.296;2023-06-10T11:16:28;28.30;62.00
51811;DHT22;52468;40.116;18.296;2023-06-10T11:18:56;27.90;62.60
51811;DHT22;52468;40.116;18.296;2023-06-10T11:21:25;27.10;61.60
51811;DHT22;52468;40.116;18.296;2023-06-10T11:23:58;26.30;61.80
51811;DHT22;52468;40.116;18.296;2023-06-10T11:33:55;20.70;85.10
51811;DHT22;52468;40.116;18.296;2023-06-10T11:36:24;20.50;86.90
51811;DHT22;52468;40.116;18.296;2023-06-10T11:38:59;20.40;86.80
51811;DHT22;52468;40.116;18.296;2023-06-10T11:41:28;20.30;87.60
51811;DHT22;52468;40.116;18.296;2023-06-10T11:44:17;20.50;87.60
51811;DHT22;52468;40.116;18.296;2023-06-10T11:46:48;20.00;87.50
51811;DHT22;52468;40.116;18.296;2023-06-10T11:49:17;19.50;87.60
51811;DHT22;52468;40.116;18.296;2023-06-10T11:51:45;19.30;88.10
51811;DHT22;52468;40.116;18.296;2023-06-10T11:54:18;19.00;88.00
51811;DHT22;52468;40.116;18.296;2023-06-10T11:56:46;18.60;88.40
51811;DHT22;52468;40.116;18.296;2023-06-10T11:59:15;18.50;89.10
51811;DHT22;52468;40.116;18.296;2023-06-10T12:01:44;18.50;89.60
51811;DHT22;52468;40.116;18.296;2023-06-10T12:04:14;18.50;90.10
51811;DHT22;52468;40.116;18.296;2023-06-10T12:06:50;18.60;90.70
51811;DHT22;52468;40.116;18.296;2023-06-10T12:09:25;19.00;90.60
51811;DHT22;52468;40.116;18.296;2023-06-10T12:12:04;19.30;91.10
51811;DHT22;52468;40.116;18.296;2023-06-10T12:17:20;19.60;90.40
51811;DHT22;52468;40.116;18.296;2023-06-10T12:19:50;19.60;90.20
51811;DHT22;52468;40.116;18.296;2023-06-10T12:22:18;19.60;90.30
51811;DHT22;52468;40.116;18.296;2023-06-10T12:25:04;19.60;90.50
51811;DHT22;52468;40.116;18.296;2023-06-10T12:27:33;19.60;90.50
51811;DHT22;52468;40.116;18.296;2023-06-10T12:30:03;19.80;90.80
51811;DHT22;52468;40.116;18.296;2023-06-10T12:32:40;20.00;90.90
51811;DHT22;52468;40.116;18.296;2023-06-10T12:35:09;20.10;89.80
51811;DHT22;52468;40.116;18.296;2023-06-10T12:37:41;20.10;89.70
51811;DHT22;52468;40.116;18.296;2023-06-10T12:40:11;20.20;89.70
51811;DHT22;52468;40.116;18.296;2023-06-10T12:42:39;20.10;89.60
51811;DHT22;52468;40.116;18.296;2023-06-10T12:45:07;20.10;89.10
51811;DHT22;52468;40.116;18.296;2023-06-10T12:47:38;20.10;89.70
51811;DHT22;52468;40.116;18.296;2023-06-10T12:50:07;20.30;89.80
51811;DHT22;52468;40.116;18.296;2023-06-10T12:52:35;20.30;90.00
51811;DHT22;52468;40.116;18.296;2023-06-10T12:55:04;20.40;90.00
51811;DHT22;52468;40.116;18.296;2023-06-10T12:57:32;20.50;90.00
51811;DHT22;52468;40.116;18.296;2023-06-10T13:00:00;20.50;89.30
51811;DHT22;52468;40.116;18.296;2023-06-10T13:02:32;20.50;88.80
51811;DHT22;52468;40.116;18.296;2023-06-10T13:05:00;20.50;89.10
51811;DHT22;52468;40.116;18.296;2023-06-10T13:07:30;20.70;89.30
51811;DHT22;52468;40.116;18.296;2023-06-10T13:09:58;20.90;89.40
51811;DHT22;52468;40.116;18.296;2023-06-10T13:12:26;21.10;89.00
51811;DHT22;52468;40.116;18.296;2023-06-10T13:15:00;21.30;89.30
51811;DHT22;52468;40.116;18.296;2023-06-10T13:17:30;21.50;89.10
51811;DHT22;52468;40.116;18.296;2023-06-10T13:19:57;21.90;88.90
51811;DHT22;52468;40.116;18.296;2023-06-10T13:22:26;22.40;89.00
51811;DHT22;52468;40.116;18.296;2023-06-10T13:24:55;22.70;87.90
51811;DHT22;52468;40.116;18.296;2023-06-10T13:27:22;23.10;88.20
51811;DHT22;52468;40.116;18.296;2023-06-10T13:29:50;23.30;87.60
51811;DHT22;52468;40.116;18.296;2023-06-10T13:32:18;23.40;86.90
51811;DHT22;52468;40.116;18.296;2023-06-10T13:34:46;23.50;86.40
51811;DHT22;52468;40.116;18.296;2023-06-10T13:37:14;23.70;85.50
51811;DHT22;52468;40.116;18.296;2023-06-10T13:39:42;25.00;88.00
51811;DHT22;52468;40.116;18.296;2023-06-10T13:42:10;26.10;81.50
51811;DHT22;52468;40.116;18.296;2023-06-10T13:44:38;26.20;78.10
51811;DHT22;52468;40.116;18.296;2023-06-10T13:47:06;26.00;78.50
51811;DHT22;52468;40.116;18.296;2023-06-10T13:49:34;26.00;77.20
51811;DHT22;52468;40.116;18.296;2023-06-10T13:52:02;25.90;76.90
51811;DHT22;52468;40.116;18.296;2023-06-10T13:54:30;25.90;77.10
51811;DHT22;52468;40.116;18.296;2023-06-10T13:56:58;26.00;77.80
51811;DHT22;52468;40.116;18.296;2023-06-10T13:59:27;26.10;74.70
51811;DHT22;52468;40.116;18.296;2023-06-10T14:01:55;27.20;74.70
51811;DHT22;52468;40.116;18.296;2023-06-10T14:04:24;28.70;71.80
51811;DHT22;52468;40.116;18.296;2023-06-10T14:06:52;28.70;67.20
51811;DHT22;52468;40.116;18.296;2023-06-10T14:09:19;27.70;69.50
51811;DHT22;52468;40.116;18.296;2023-06-10T14:11:47;26.60;69.50
51811;DHT22;52468;40.116;18.296;2023-06-10T14:14:15;26.00;73.40
51811;DHT22;52468;40.116;18.296;2023-06-10T14:16:43;25.70;73.30
51811;DHT22;52468;40.116;18.296;2023-06-10T14:19:11;25.60;73.80
51811;DHT22;52468;40.116;18.296;2023-06-10T14:21:39;25.60;73.90
51811;DHT22;52468;40.116;18.296;2023-06-10T14:24:07;25.90;73.10
51811;DHT22;52468;40.116;18.296;2023-06-10T14:26:35;26.10;72.30
51811;DHT22;52468;40.116;18.296;2023-06-10T14:29:03;26.30;71.60
51811;DHT22;52468;40.116;18.296;2023-06-10T14:31:30;26.10;71.50
51811;DHT22;52468;40.116;18.296;2023-06-10T14:33:58;25.90;71.30
51811;DHT22;52468;40.116;18.296;2023-06-10T14:36:26;25.80;71.90
51811;DHT22;52468;40.116;18.296;2023-06-10T14:38:54;25.70;72.80
51811;DHT22;52468;40.116;18.296;2023-06-10T14:41:22;25.80;71.00
51811;DHT22;52468;40.116;18.296;2023-06-10T14:43:49;25.90;70.70
51811;DHT22;52468;40.116;18.296;2023-06-10T14:46:17;25.80;71.20
51811;DHT22;52468;40.116;18.296;2023-06-10T14:48:45;25.80;71.00
51811;DHT22;52468;40.116;18.296;2023-06-10T14:51:13;25.80;70.70
51811;DHT22;52468;40.116;18.296;2023-06-10T14:53:41;25.60;71.20
51811;DHT22;52468;40.116;18.296;2023-06-10T14:56:09;25.80;73.30
51811;DHT22;52468;40.116;18.296;2023-06-10T14:58:37;25.90;70.90
51811;DHT22;52468;40.116;18.296;2023-06-10T15:01:04;26.00;71.60
51811;DHT22;52468;40.116;18.296;2023-06-10T15:03:32;26.30;71.60
51811;DHT22;52468;40.116;18.296;2023-06-10T15:06:00;26.50;71.40
51811;DHT22;52468;40.116;18.296;2023-06-10T15:08:28;27.10;70.20
51811;DHT22;52468;40.116;18.296;2023-06-10T15:10:56;27.50;68.10
51811;DHT22;52468;40.116;18.296;2023-06-10T15:13:24;28.00;66.90
51811;DHT22;52468;40.116;18.296;2023-06-10T15:15:52;28.90;65.80
51811;DHT22;52468;40.116;18.296;2023-06-10T15:18:20;30.40;62.40
51811;DHT22;52468;40.116;18.296;2023-06-10T15:20:48;31.70;57.00
51811;DHT22;52468;40.116;18.296;2023-06-10T15:23:16;31.50;54.00
51811;DHT22;52468;40.116;18.296;2023-06-10T15:25:44;30.60;56.30
51811;DHT22;52468;40.116;18.296;2023-06-10T15:28:14;30.10;57.70
51811;DHT22;52468;40.116;18.296;2023-06-10T15:30:42;29.60;59.00
51811;DHT22;52468;40.116;18.296;2023-06-10T15:33:09;29.50;59.50
51811;DHT22;52468;40.116;18.296;2023-06-10T15:35:37;29.40;59.70
51811;DHT22;52468;40.116;18.296;2023-06-10T15:38:05;29.20;60.90
51811;DHT22;52468;40.116;18.296;2023-06-10T15:40:33;29.30;61.20
51811;DHT22;52468;40.116;18.296;2023-06-10T15:43:01;29.20;62.00
51811;DHT22;52468;40.116;18.296;2023-06-10T15:45:29;29.10;61.20
51811;DHT22;52468;40.116;18.296;2023-06-10T15:47:57;28.70;60.60
51811;DHT22;52468;40.116;18.296;2023-06-10T15:50:26;28.20;60.80